sensor_id;sensor_type;location;lat;lon;timestamp;pressure;altitude;pressure_sealevel;temperature;humidity
26839;BME280;40088;51.214;6.786;2022-10-16T00:08:08;100825.75;;;18.39;65.66
26839;BME280;40088;51.214;6.786;2022-10-16T00:18:09;100845.91;;;18.39;65.63
26839;BME280;40088;51.214;6.786;2022-10-16T00:28:09;100840.38;;;18.39;65.50
26839;BME280;40088;51.214;6.786;2022-10-16T00:38:10;100832.97;;;18.40;65.39
26839;BME280;40088;51.214;6.786;2022-10-16T00:48:12;100826.81;;;18.38;65.31
26839;BME280;40088;51.214;6.786;2022-10-16T00:58:13;100819.38;;;18.38;65.19
26839;BME280;40088;51.214;6.786;2022-10-16T01:08:23;100823.81;;;18.39;65.37
26839;BME280;40088;51.214;6.786;2022-10-16T01:18:33;100846.75;;;18.40;65.49
26839;BME280;40088;51.214;6.786;2022-10-16T01:28:44;100846.75;;;18.40;65.46
26839;BME280;40088;51.214;6.786;2022-10-16T01:38:50;100837.63;;;18.39;65.51
26839;BME280;40088;51.214;6.786;2022-10-16T01:48:52;100843.16;;;18.39;65.41
26839;BME280;40088;51.214;6.786;2022-10-16T01:58:57;100851.41;;;18.39;65.32
26839;BME280;40088;51.214;6.786;2022-10-16T02:08:59;100838.69;;;18.38;65.39
26839;BME280;40088;51.214;6.786;2022-10-16T02:18:59;100854.19;;;18.39;65.41
26839;BME280;40088;51.214;6.786;2022-10-16T02:29:02;100863.31;;;18.40;65.42
26839;BME280;40088;51.214;6.786;2022-10-16T02:39:05;100868.81;;;18.40;65.34
26839;BME280;40088;51.214;6.786;2022-10-16T02:49:06;100854.38;;;18.38;65.42
26839;BME280;40088;51.214;6.786;2022-10-16T02:59:06;100869.69;;;18.40;65.41
26839;BME280;40088;51.214;6.786;2022-10-16T03:09:07;100864.19;;;18.40;65.14
26839;BME280;40088;51.214;6.786;2022-10-16T03:19:08;100863.97;;;18.42;65.29
26839;BME280;40088;51.214;6.786;2022-10-16T03:29:08;100854.00;;;18.41;65.28
26839;BME280;40088;51.214;6.786;2022-10-16T03:39:08;100875.00;;;18.42;65.26
26839;BME280;40088;51.214;6.786;2022-10-16T03:49:09;100861.22;;;18.42;64.95
26839;BME280;40088;51.214;6.786;2022-10-16T03:59:09;100876.72;;;18.43;65.10
26839;BME280;40088;51.214;6.786;2022-10-16T04:09:09;100894.97;;;18.44;65.17
26839;BME280;40088;51.214;6.786;2022-10-16T04:19:10;100893.06;;;18.44;65.16
26839;BME280;40088;51.214;6.786;2022-10-16T04:29:11;100925.31;;;18.44;65.23
26839;BME280;40088;51.214;6.786;2022-10-16T04:39:11;100924.47;;;18.43;65.09
26839;BME280;40088;51.214;6.786;2022-10-16T04:49:11;100917.03;;;18.44;64.99
26839;BME280;40088;51.214;6.786;2022-10-16T04:59:13;100947.22;;;18.45;65.09
26839;BME280;40088;51.214;6.786;2022-10-16T05:09:14;100946.31;;;18.45;64.93
26839;BME280;40088;51.214;6.786;2022-10-16T05:19:14;100965.63;;;18.45;65.04
26839;BME280;40088;51.214;6.786;2022-10-16T05:29:14;100971.16;;;18.45;65.17
26839;BME280;40088;51.214;6.786;2022-10-16T05:39:15;100982.19;;;18.45;64.84
26839;BME280;40088;51.214;6.786;2022-10-16T05:49:16;101001.34;;;18.46;65.05
26839;BME280;40088;51.214;6.786;2022-10-16T05:59:16;101003.25;;;18.46;65.02
26839;BME280;40088;51.214;6.786;2022-10-16T06:09:16;101014.28;;;18.46;64.92
26839;BME280;40088;51.214;6.786;2022-10-16T06:19:17;101024.25;;;18.47;64.95
26839;BME280;40088;51.214;6.786;2022-10-16T06:29:18;101039.75;;;18.48;64.73
26839;BME280;40088;51.214;6.786;2022-10-16T06:39:18;101031.28;;;18.49;64.73
26839;BME280;40088;51.214;6.786;2022-10-16T06:49:19;101067.34;;;18.48;64.89
26839;BME280;40088;51.214;6.786;2022-10-16T06:59:22;101083.91;;;18.48;64.96
26839;BME280;40088;51.214;6.786;2022-10-16T07:09:22;101104.28;;;18.47;64.71
26839;BME280;40088;51.214;6.786;2022-10-16T07:19:23;101118.94;;;18.47;64.91
26839;BME280;40088;51.214;6.786;2022-10-16T07:29:23;101136.34;;;18.48;64.97
26839;BME280;40088;51.214;6.786;2022-10-16T07:39:23;101149.28;;;18.47;64.91
26839;BME280;40088;51.214;6.786;2022-10-16T07:49:24;101157.56;;;18.47;64.86
26839;BME280;40088;51.214;6.786;2022-10-16T07:59:24;101170.50;;;18.47;64.84
26839;BME280;40088;51.214;6.786;2022-10-16T08:09:25;101186.00;;;18.48;64.84
26839;BME280;40088;51.214;6.786;2022-10-16T08:19:25;101198.97;;;18.47;64.92
26839;BME280;40088;51.214;6.786;2022-10-16T08:29:25;101212.56;;;18.49;64.88
26839;BME280;40088;51.214;6.786;2022-10-16T08:39:26;101223.59;;;18.49;64.70
26839;BME280;40088;51.214;6.786;2022-10-16T08:49:27;101236.34;;;18.50;64.84
26839;BME280;40088;51.214;6.786;2022-10-16T08:59:27;101252.88;;;18.50;64.87
26839;BME280;40088;51.214;6.786;2022-10-16T09:19:40;101279.47;;;18.51;64.81
26839;BME280;40088;51.214;6.786;2022-10-16T09:29:44;101281.38;;;18.51;64.93
26839;BME280;40088;51.214;6.786;2022-10-16T09:39:46;101287.75;;;18.51;64.81
26839;BME280;40088;51.214;6.786;2022-10-16T09:49:57;101287.75;;;18.51;64.70
26839;BME280;40088;51.214;6.786;2022-10-16T09:59:59;101286.47;;;18.54;64.70
26839;BME280;40088;51.214;6.786;2022-10-16T10:10:01;101291.06;;;18.61;64.62
26839;BME280;40088;51.214;6.786;2022-10-16T10:20:21;101284.91;;;18.66;64.58
26839;BME280;40088;51.214;6.786;2022-10-16T10:30:37;101286.66;;;18.67;64.56
26839;BME280;40088;51.214;6.786;2022-10-16T10:40:51;101287.34;;;18.69;64.67
26839;BME280;40088;51.214;6.786;2022-10-16T10:51:06;101292.47;;;18.72;64.58
26839;BME280;40088;51.214;6.786;2022-10-16T11:01:14;101310.97;;;18.71;64.41
26839;BME280;40088;51.214;6.786;2022-10-16T11:21:44;101309.50;;;18.76;64.61
26839;BME280;40088;51.214;6.786;2022-10-16T11:32:00;101321.38;;;18.76;64.54
26839;BME280;40088;51.214;6.786;2022-10-16T11:42:32;101314.38;;;18.73;64.52
26839;BME280;40088;51.214;6.786;2022-10-16T11:52:43;101325.41;;;18.73;64.57
26839;BME280;40088;51.214;6.786;2022-10-16T12:23:27;101325.44;;;18.95;63.73
26839;BME280;40088;51.214;6.786;2022-10-16T12:43:45;101319.88;;;19.10;63.28
26839;BME280;40088;51.214;6.786;2022-10-16T12:53:45;101312.56;;;19.23;63.85
26839;BME280;40088;51.214;6.786;2022-10-16T13:34:22;101326.63;;;19.07;64.17
26839;BME280;40088;51.214;6.786;2022-10-16T13:44:22;101325.84;;;18.92;64.15
26839;BME280;40088;51.214;6.786;2022-10-16T13:54:24;101326.16;;;18.82;64.42
26839;BME280;40088;51.214;6.786;2022-10-16T14:04:32;101336.94;;;18.77;64.62
26839;BME280;40088;51.214;6.786;2022-10-16T14:14:44;101346.84;;;18.71;64.63
26839;BME280;40088;51.214;6.786;2022-10-16T14:24:45;101317.88;;;18.67;64.62
26839;BME280;40088;51.214;6.786;2022-10-16T14:34:53;101340.13;;;18.66;64.80
26839;BME280;40088;51.214;6.786;2022-10-16T14:44:54;101321.22;;;18.63;64.98
26839;BME280;40088;51.214;6.786;2022-10-16T14:54:55;101349.03;;;18.61;65.03
26839;BME280;40088;51.214;6.786;2022-10-16T15:04:57;101328.16;;;18.59;64.94
26839;BME280;40088;51.214;6.786;2022-10-16T15:14:57;101344.94;;;18.57;65.03
26839;BME280;40088;51.214;6.786;2022-10-16T15:24:57;101335.78;;;18.57;64.68
26839;BME280;40088;51.214;6.786;2022-10-16T15:34:58;101313.88;;;18.55;65.10
26839;BME280;40088;51.214;6.786;2022-10-16T15:44:58;101311.13;;;18.55;65.04
26839;BME280;40088;51.214;6.786;2022-10-16T15:54:58;101305.59;;;18.55;65.06
26839;BME280;40088;51.214;6.786;2022-10-16T16:04:59;101299.22;;;18.55;64.93
26839;BME280;40088;51.214;6.786;2022-10-16T16:14:59;101305.81;;;18.54;65.15
26839;BME280;40088;51.214;6.786;2022-10-16T16:24:59;101288.41;;;18.53;65.07
26839;BME280;40088;51.214;6.786;2022-10-16T16:35:00;101299.44;;;18.53;65.25
26839;BME280;40088;51.214;6.786;2022-10-16T16:45:00;101316.00;;;18.53;65.33
26839;BME280;40088;51.214;6.786;2022-10-16T16:55:00;101317.91;;;18.53;65.01
26839;BME280;40088;51.214;6.786;2022-10-16T17:05:02;101340.84;;;18.53;65.25
26839;BME280;40088;51.214;6.786;2022-10-16T17:15:02;101339.13;;;18.52;65.32
26839;BME280;40088;51.214;6.786;2022-10-16T17:25:03;101362.06;;;18.53;65.25
26839;BME280;40088;51.214;6.786;2022-10-16T17:35:05;101359.28;;;18.53;65.12
26839;BME280;40088;51.214;6.786;2022-10-16T17:45:06;101364.81;;;18.53;65.22
26839;BME280;40088;51.214;6.786;2022-10-16T17:55:07;101361.22;;;18.52;65.40
26839;BME280;40088;51.214;6.786;2022-10-16T18:05:08;101362.06;;;18.53;65.14
26839;BME280;40088;51.214;6.786;2022-10-16T18:15:09;101363.97;;;18.52;65.22
26839;BME280;40088;51.214;6.786;2022-10-16T18:25:10;101373.09;;;18.53;65.34
26839;BME280;40088;51.214;6.786;2022-10-16T18:35:10;101363.97;;;18.52;65.34
26839;BME280;40088;51.214;6.786;2022-10-16T18:45:10;101387.75;;;18.53;65.23
26839;BME280;40088;51.214;6.786;2022-10-16T18:55:11;101413.66;;;18.52;65.30
26839;BME280;40088;51.214;6.786;2022-10-16T19:05:11;101421.94;;;18.52;65.53
26839;BME280;40088;51.214;6.786;2022-10-16T19:15:11;101455.03;;;18.52;65.53
26839;BME280;40088;51.214;6.786;2022-10-16T19:25:12;101449.53;;;18.52;65.33
26839;BME280;40088;51.214;6.786;2022-10-16T19:35:12;101446.75;;;18.52;65.32
26839;BME280;40088;51.214;6.786;2022-10-16T19:45:12;101452.28;;;18.52;65.37
26839;BME280;40088;51.214;6.786;2022-10-16T19:55:13;101463.31;;;18.52;65.47
26839;BME280;40088;51.214;6.786;2022-10-16T20:05:13;101460.56;;;18.52;65.61
26839;BME280;40088;51.214;6.786;2022-10-16T20:15:14;101461.41;;;18.53;65.63
26839;BME280;40088;51.214;6.786;2022-10-16T20:25:14;101442.09;;;18.53;65.53
26839;BME280;40088;51.214;6.786;2022-10-16T20:35:14;101447.41;;;18.54;65.57
26839;BME280;40088;51.214;6.786;2022-10-16T20:45:15;101456.75;;;18.53;65.62
26839;BME280;40088;51.214;6.786;2022-10-16T20:55:15;101449.31;;;18.54;65.75
26839;BME280;40088;51.214;6.786;2022-10-16T21:05:17;101441.91;;;18.54;65.47
26839;BME280;40088;51.214;6.786;2022-10-16T21:15:18;101440.00;;;18.55;65.55
26839;BME280;40088;51.214;6.786;2022-10-16T21:25:18;101440.00;;;18.55;65.57
26839;BME280;40088;51.214;6.786;2022-10-16T21:35:18;101428.09;;;18.54;65.67
26839;BME280;40088;51.214;6.786;2022-10-16T21:45:19;101431.72;;;18.55;65.66
26839;BME280;40088;51.214;6.786;2022-10-16T21:55:19;101424.28;;;18.55;65.77
26839;BME280;40088;51.214;6.786;2022-10-16T22:05:19;101417.06;;;18.54;65.75
26839;BME280;40088;51.214;6.786;2022-10-16T22:15:19;101428.94;;;18.55;65.71
26839;BME280;40088;51.214;6.786;2022-10-16T22:25:20;101429.16;;;18.53;65.77
26839;BME280;40088;51.214;6.786;2022-10-16T22:35:20;101409.81;;;18.53;65.85
26839;BME280;40088;51.214;6.786;2022-10-16T22:45:20;101404.31;;;18.53;65.75
26839;BME280;40088;51.214;6.786;2022-10-16T22:55:21;101412.59;;;18.53;65.82
26839;BME280;40088;51.214;6.786;2022-10-16T23:05:21;101414.28;;;18.54;65.94
26839;BME280;40088;51.214;6.786;2022-10-16T23:15:21;101425.53;;;18.53;65.92
26839;BME280;40088;51.214;6.786;2022-10-16T23:25:21;101419.16;;;18.52;65.94
26839;BME280;40088;51.214;6.786;2022-10-16T23:35:22;101435.72;;;18.52;65.86
26839;BME280;40088;51.214;6.786;2022-10-16T23:45:22;101432.97;;;18.52;65.88
26839;BME280;40088;51.214;6.786;2022-10-16T23:55:22;101434.88;;;18.52;65.83
